createdAt,value
2023-03-02T00:01:06.266Z,97.23
2023-03-02T00:03:51.770Z,96.91
2023-03-02T00:06:37.371Z,96.93
2023-03-02T00:09:22.814Z,97.00
2023-03-02T00:12:09.034Z,96.96
2023-03-02T00:14:54.298Z,97.02
2023-03-02T00:17:39.266Z,97.17
2023-03-02T00:20:24.200Z,97.13
2023-03-02T00:23:09.408Z,97.21
2023-03-02T00:25:54.386Z,97.49
2023-03-02T00:28:39.573Z,97.38
2023-03-02T00:31:24.723Z,97.70
2023-03-02T00:34:09.633Z,98.16
2023-03-02T00:36:54.917Z,98.28
2023-03-02T00:39:39.768Z,98.29
2023-03-02T00:42:24.725Z,98.08
2023-03-02T00:45:10.009Z,97.99
2023-03-02T00:47:55.386Z,98.16
2023-03-02T00:50:41.282Z,98.44
2023-03-02T00:53:26.422Z,98.88
2023-03-02T00:56:11.979Z,99.11
2023-03-02T00:58:57.145Z,99.27
2023-03-02T01:01:42.129Z,99.45
2023-03-02T01:04:30.919Z,99.83
2023-03-02T01:07:17.891Z,99.83
2023-03-02T01:10:03.606Z,100.00
2023-03-02T01:12:48.627Z,100.00
2023-03-02T01:15:35.108Z,100.00
2023-03-02T01:18:20.184Z,100.00
2023-03-02T01:21:07.387Z,100.00
2023-03-02T01:23:52.600Z,100.00
2023-03-02T01:26:37.875Z,100.00
2023-03-02T01:29:22.853Z,100.00
2023-03-02T01:32:08.348Z,100.00
2023-03-02T01:34:53.327Z,100.00
2023-03-02T01:37:38.661Z,100.00
2023-03-02T01:40:23.837Z,100.00
2023-03-02T01:43:14.452Z,100.00
2023-03-02T01:46:27.510Z,100.00
2023-03-02T01:49:14.663Z,100.00
2023-03-02T01:52:00.241Z,100.00
2023-03-02T01:54:49.858Z,100.00
2023-03-02T01:57:43.516Z,100.00
2023-03-02T02:00:31.876Z,100.00
2023-03-02T02:03:28.788Z,100.00
2023-03-02T02:06:32.594Z,100.00
2023-03-02T02:09:20.386Z,100.00
2023-03-02T02:12:05.933Z,100.00
2023-03-02T02:14:51.311Z,100.00
2023-03-02T02:17:36.457Z,100.00
2023-03-02T02:20:41.063Z,100.00
2023-03-02T02:23:34.054Z,100.00
2023-03-02T02:26:35.409Z,100.00
2023-03-02T02:29:38.291Z,100.00
2023-03-02T02:32:27.181Z,100.00
2023-03-02T02:35:18.155Z,100.00
2023-03-02T02:38:07.718Z,100.00
2023-03-02T02:40:56.602Z,100.00
2023-03-02T02:43:42.018Z,100.00
2023-03-02T02:46:27.778Z,100.00
2023-03-02T02:49:35.741Z,100.00
2023-03-02T02:52:23.607Z,100.00
2023-03-02T02:55:15.915Z,100.00
2023-03-02T02:58:09.916Z,100.00
2023-03-02T03:00:55.536Z,100.00
2023-03-02T03:03:47.340Z,100.00
2023-03-02T03:06:38.303Z,100.00
2023-03-02T03:09:24.066Z,100.00
2023-03-02T03:12:21.125Z,100.00
2023-03-02T03:15:07.793Z,100.00
2023-03-02T03:17:58.238Z,100.00
2023-03-02T03:20:45.269Z,100.00
2023-03-02T03:23:31.075Z,100.00
2023-03-02T03:26:16.961Z,100.00
2023-03-02T03:29:02.804Z,100.00
2023-03-02T03:31:47.994Z,100.00
2023-03-02T03:34:40.924Z,100.00
2023-03-02T03:37:26.146Z,100.00
2023-03-02T03:40:11.815Z,100.00
2023-03-02T03:42:56.705Z,100.00
2023-03-02T03:45:41.741Z,100.00
2023-03-02T03:48:26.934Z,100.00
2023-03-02T03:51:12.318Z,100.00
2023-03-02T03:54:00.103Z,100.00
2023-03-02T03:56:48.262Z,100.00
2023-03-02T03:59:34.142Z,100.00
2023-03-02T04:02:19.950Z,100.00
2023-03-02T04:05:06.461Z,100.00
2023-03-02T04:07:51.877Z,100.00
2023-03-02T04:10:37.085Z,100.00
2023-03-02T04:13:22.297Z,100.00
2023-03-02T04:16:07.522Z,100.00
2023-03-02T04:18:52.816Z,100.00
2023-03-02T04:21:43.260Z,100.00
2023-03-02T04:24:28.655Z,100.00
2023-03-02T04:27:14.525Z,100.00
2023-03-02T04:29:59.662Z,100.00
2023-03-02T04:32:44.554Z,100.00
2023-03-02T04:35:29.986Z,100.00
2023-03-02T04:38:15.150Z,100.00
2023-03-02T04:41:00.508Z,100.00
2023-03-02T04:43:45.833Z,100.00
2023-03-02T04:46:31.748Z,100.00
2023-03-02T04:49:18.595Z,100.00
2023-03-02T04:52:04.829Z,100.00
2023-03-02T04:54:49.710Z,100.00
2023-03-02T04:57:34.969Z,100.00
2023-03-02T05:00:23.937Z,100.00
2023-03-02T05:03:09.149Z,100.00
2023-03-02T05:05:54.564Z,100.00
2023-03-02T05:08:40.013Z,100.00
2023-03-02T05:11:26.262Z,100.00
2023-03-02T05:14:12.777Z,100.00
2023-03-02T05:16:58.196Z,100.00
2023-03-02T05:19:43.557Z,100.00
2023-03-02T05:22:28.629Z,100.00
2023-03-02T05:25:14.526Z,100.00
2023-03-02T05:27:59.987Z,100.00
2023-03-02T05:30:45.444Z,100.00
2023-03-02T05:33:30.939Z,100.00
2023-03-02T05:36:19.011Z,100.00
2023-03-02T05:39:06.405Z,100.00
2023-03-02T05:41:51.827Z,100.00
2023-03-02T05:44:36.666Z,100.00
2023-03-02T05:47:21.739Z,100.00
2023-03-02T05:50:07.178Z,100.00
2023-03-02T05:52:52.578Z,100.00
2023-03-02T05:55:37.975Z,100.00
2023-03-02T05:58:23.210Z,100.00
2023-03-02T06:01:13.138Z,100.00
2023-03-02T06:03:59.903Z,100.00
2023-03-02T06:06:45.071Z,100.00
2023-03-02T06:09:29.975Z,100.00
2023-03-02T06:12:15.141Z,100.00
2023-03-02T06:15:05.584Z,100.00
2023-03-02T06:17:50.912Z,100.00
2023-03-02T06:20:36.254Z,100.00
2023-03-02T06:23:21.449Z,100.00
2023-03-02T06:26:11.853Z,100.00
2023-03-02T06:28:56.771Z,100.00
2023-03-02T06:31:41.687Z,100.00
2023-03-02T06:34:29.432Z,100.00
2023-03-02T06:37:14.500Z,100.00
2023-03-02T06:39:59.740Z,100.00
2023-03-02T06:42:45.197Z,100.00
2023-03-02T06:45:33.635Z,100.00
2023-03-02T06:48:18.899Z,100.00
2023-03-02T06:51:04.538Z,100.00
2023-03-02T06:53:49.534Z,100.00
2023-03-02T06:56:35.448Z,100.00
2023-03-02T06:59:20.738Z,100.00
2023-03-02T07:02:06.403Z,100.00
2023-03-02T07:04:51.526Z,100.00
2023-03-02T07:07:37.026Z,100.00
2023-03-02T07:10:22.370Z,100.00
2023-03-02T07:13:09.103Z,100.00
2023-03-02T07:15:54.994Z,100.00
2023-03-02T07:18:40.446Z,100.00
2023-03-02T07:21:25.716Z,100.00
2023-03-02T07:24:11.009Z,100.00
2023-03-02T07:26:55.958Z,100.00
2023-03-02T07:29:40.929Z,100.00
2023-03-02T07:32:26.280Z,100.00
2023-03-02T07:35:11.409Z,100.00
2023-03-02T07:37:56.649Z,100.00
2023-03-02T07:40:42.855Z,100.00
2023-03-02T07:43:29.325Z,100.00
2023-03-02T07:46:14.436Z,100.00
2023-03-02T07:48:59.779Z,100.00
2023-03-02T07:51:45.034Z,100.00
2023-03-02T07:54:30.516Z,100.00
2023-03-02T07:57:16.442Z,100.00
2023-03-02T08:00:02.203Z,100.00
2023-03-02T08:02:47.550Z,100.00
2023-03-02T08:05:32.639Z,100.00
2023-03-02T08:08:17.425Z,100.00
2023-03-02T08:11:10.999Z,100.00
2023-03-02T08:14:00.352Z,100.00
2023-03-02T08:16:45.572Z,100.00
2023-03-02T08:19:30.916Z,100.00
2023-03-02T08:22:16.180Z,100.00
2023-03-02T08:25:01.352Z,100.00
2023-03-02T08:27:46.767Z,100.00
2023-03-02T08:30:32.058Z,100.00
2023-03-02T08:33:17.205Z,100.00
2023-03-02T08:36:12.395Z,100.00
2023-03-02T08:38:57.461Z,100.00
2023-03-02T08:41:42.667Z,100.00
2023-03-02T08:44:27.877Z,100.00
2023-03-02T08:47:13.173Z,100.00
2023-03-02T08:49:58.413Z,100.00
2023-03-02T08:52:44.124Z,100.00
2023-03-02T08:55:29.269Z,100.00
2023-03-02T08:58:14.839Z,100.00
2023-03-02T09:01:00.190Z,100.00
2023-03-02T09:03:45.894Z,100.00
2023-03-02T09:06:34.232Z,100.00
2023-03-02T09:09:19.426Z,100.00
2023-03-02T09:12:04.451Z,100.00
2023-03-02T09:14:49.734Z,100.00
2023-03-02T09:17:34.649Z,100.00
2023-03-02T09:20:19.596Z,100.00
2023-03-02T09:23:04.659Z,100.00
2023-03-02T09:25:50.530Z,100.00
2023-03-02T09:28:36.173Z,100.00
2023-03-02T09:31:21.427Z,100.00
2023-03-02T09:34:07.235Z,100.00
2023-03-02T09:36:52.421Z,100.00
2023-03-02T09:39:38.577Z,100.00
2023-03-02T09:42:51.785Z,100.00
2023-03-02T09:45:59.186Z,100.00
2023-03-02T09:49:00.716Z,100.00
2023-03-02T09:51:54.756Z,100.00
2023-03-02T09:54:41.000Z,100.00
2023-03-02T09:57:34.502Z,99.56
2023-03-02T10:00:29.496Z,99.92
2023-03-02T10:03:22.892Z,99.67
2023-03-02T10:06:09.122Z,99.54
2023-03-02T10:08:55.160Z,98.30
2023-03-02T10:12:00.599Z,98.16
2023-03-02T10:14:56.733Z,98.45
2023-03-02T10:18:07.714Z,97.71
2023-03-02T10:21:12.790Z,98.03
2023-03-02T10:24:28.993Z,98.02
2023-03-02T10:27:21.948Z,97.08
2023-03-02T10:30:39.940Z,97.64
2023-03-02T10:33:27.301Z,96.82
2023-03-02T10:36:25.326Z,96.02
2023-03-02T10:39:15.771Z,95.83
2023-03-02T10:42:04.581Z,95.06
2023-03-02T10:44:56.934Z,93.84
2023-03-02T10:47:48.574Z,92.60
2023-03-02T10:50:33.833Z,92.57
2023-03-02T10:53:19.353Z,93.18
2023-03-02T10:56:05.564Z,92.89
2023-03-02T10:58:50.672Z,90.44
2023-03-02T11:01:36.119Z,87.54
2023-03-02T11:04:21.875Z,87.16
2023-03-02T11:07:14.978Z,88.51
2023-03-02T11:10:18.615Z,88.56
2023-03-02T11:13:23.825Z,88.74
2023-03-02T11:16:18.152Z,88.13
2023-03-02T11:19:11.922Z,86.83
2023-03-02T11:22:15.979Z,86.79
2023-03-02T11:25:06.529Z,86.22
2023-03-02T11:28:01.986Z,85.16
2023-03-02T11:30:50.599Z,84.57
2023-03-02T11:33:42.936Z,84.80
2023-03-02T11:36:39.890Z,84.57
2023-03-02T11:39:41.126Z,82.96
2023-03-02T11:42:38.956Z,82.73
2023-03-02T11:45:28.164Z,81.89
2023-03-02T11:48:29.651Z,81.91
2023-03-02T11:51:21.804Z,78.88
2023-03-02T11:54:22.942Z,78.39
2023-03-02T11:57:21.534Z,77.49
2023-03-02T12:00:34.165Z,78.47
2023-03-02T12:03:22.698Z,77.57
2023-03-02T12:06:29.806Z,77.29
2023-03-02T12:09:23.835Z,77.93
2023-03-02T12:12:32.888Z,78.60
2023-03-02T12:15:43.651Z,80.98
2023-03-02T12:18:44.575Z,80.12
2023-03-02T12:21:40.767Z,80.15
2023-03-02T12:24:28.028Z,78.01
2023-03-02T12:27:12.975Z,77.43
2023-03-02T12:30:16.898Z,76.01
2023-03-02T12:33:04.166Z,75.14
2023-03-02T12:35:52.815Z,73.53
2023-03-02T12:38:40.611Z,72.45
2023-03-02T12:41:57.689Z,72.78
2023-03-02T12:44:49.317Z,73.29
2023-03-02T12:47:35.920Z,73.72
2023-03-02T12:50:25.024Z,73.27
2023-03-02T12:53:18.437Z,72.48
2023-03-02T12:56:03.467Z,73.01
2023-03-02T12:58:50.020Z,72.06
2023-03-02T13:01:34.966Z,72.96
2023-03-02T13:04:22.736Z,73.47
2023-03-02T13:07:17.146Z,73.19
2023-03-02T13:10:09.685Z,69.25
2023-03-02T13:12:55.073Z,70.29
2023-03-02T13:15:58.768Z,70.06
2023-03-02T13:18:44.612Z,69.40
2023-03-02T13:21:32.975Z,69.07
2023-03-02T13:24:33.588Z,67.86
2023-03-02T13:27:21.278Z,67.83
2023-03-02T13:30:22.302Z,67.36
2023-03-02T13:33:23.033Z,67.31
2023-03-02T13:36:08.415Z,68.51
2023-03-02T13:38:56.648Z,67.33
2023-03-02T13:41:53.261Z,67.73
2023-03-02T13:44:38.128Z,67.22
2023-03-02T13:47:24.594Z,67.27
2023-03-02T13:50:10.300Z,66.70
2023-03-02T13:52:57.741Z,67.48
2023-03-02T13:55:43.131Z,66.43
2023-03-02T13:58:29.781Z,66.80
2023-03-02T14:01:14.943Z,66.74
2023-03-02T14:04:01.554Z,67.08
2023-03-02T14:06:47.200Z,67.65
2023-03-02T14:09:32.459Z,67.37
2023-03-02T14:12:28.152Z,66.54
2023-03-02T14:15:16.414Z,66.57
2023-03-02T14:18:01.653Z,66.30
2023-03-02T14:20:46.871Z,67.11
2023-03-02T14:23:32.330Z,66.03
2023-03-02T14:26:40.859Z,66.69
2023-03-02T14:29:28.193Z,65.14
2023-03-02T14:32:15.549Z,64.73
2023-03-02T14:35:00.866Z,66.79
2023-03-02T14:37:49.374Z,66.34
2023-03-02T14:40:34.675Z,67.03
2023-03-02T14:43:21.290Z,67.00
2023-03-02T14:46:06.971Z,65.56
2023-03-02T14:48:52.123Z,65.67
2023-03-02T14:51:40.979Z,65.37
2023-03-02T14:54:26.865Z,64.87
2023-03-02T14:57:25.132Z,66.05
2023-03-02T15:00:15.395Z,66.58
2023-03-02T15:03:00.421Z,68.81
2023-03-02T15:05:59.006Z,68.54
2023-03-02T15:08:45.963Z,68.97
2023-03-02T15:11:31.389Z,70.74
2023-03-02T15:14:16.508Z,72.00
2023-03-02T15:17:02.053Z,71.93
2023-03-02T15:19:47.438Z,74.06
2023-03-02T15:22:33.667Z,72.36
2023-03-02T15:25:18.745Z,73.20
2023-03-02T15:28:03.993Z,74.01
2023-03-02T15:30:49.160Z,74.58
2023-03-02T15:33:34.246Z,75.26
2023-03-02T15:36:19.270Z,75.17
2023-03-02T15:39:05.003Z,74.86
2023-03-02T15:41:50.291Z,76.50
2023-03-02T15:44:35.511Z,77.44
2023-03-02T15:47:20.474Z,78.34
2023-03-02T15:50:05.902Z,77.88
2023-03-02T15:52:51.237Z,79.78
2023-03-02T15:55:40.426Z,79.94
2023-03-02T15:58:25.528Z,79.87
2023-03-02T16:01:11.523Z,80.36
2023-03-02T16:03:59.314Z,80.76
2023-03-02T16:06:44.694Z,81.23
2023-03-02T16:09:31.431Z,81.96
2023-03-02T16:12:17.851Z,81.66
2023-03-02T16:15:02.814Z,81.15
2023-03-02T16:17:48.360Z,81.69
2023-03-02T16:20:38.516Z,81.04
2023-03-02T16:23:23.794Z,81.43
2023-03-02T16:26:11.885Z,80.99
2023-03-02T16:28:57.216Z,81.46
2023-03-02T16:31:45.237Z,80.76
2023-03-02T16:34:30.738Z,81.29
2023-03-02T16:37:15.990Z,81.52
2023-03-02T16:40:00.896Z,82.34
2023-03-02T16:42:46.315Z,82.38
2023-03-02T16:45:31.183Z,83.19
2023-03-02T16:48:17.394Z,83.18
2023-03-02T16:51:03.317Z,84.75
2023-03-02T16:53:48.897Z,85.18
2023-03-02T16:56:34.644Z,84.76
2023-03-02T16:59:19.506Z,86.34
2023-03-02T17:02:04.656Z,86.55
2023-03-02T17:04:49.875Z,86.31
2023-03-02T17:07:35.266Z,86.09
2023-03-02T17:10:22.033Z,87.04
2023-03-02T17:13:08.702Z,87.49
2023-03-02T17:15:54.646Z,87.18
2023-03-02T17:18:41.045Z,87.32
2023-03-02T17:21:25.917Z,87.44
2023-03-02T17:24:10.880Z,87.50
2023-03-02T17:26:56.429Z,87.05
2023-03-02T17:29:41.833Z,87.72
2023-03-02T17:32:27.260Z,87.59
2023-03-02T17:35:13.978Z,88.19
2023-03-02T17:37:59.593Z,89.10
2023-03-02T17:40:44.697Z,89.06
2023-03-02T17:43:37.760Z,89.43
2023-03-02T17:46:25.522Z,89.16
2023-03-02T17:49:11.429Z,88.95
2023-03-02T17:51:57.186Z,89.06
2023-03-02T17:54:42.988Z,89.13
2023-03-02T17:57:28.214Z,90.37
2023-03-02T18:00:16.766Z,90.49
2023-03-02T18:03:01.832Z,90.40
2023-03-02T18:05:47.075Z,90.89
2023-03-02T18:08:33.206Z,91.29
2023-03-02T18:11:22.318Z,91.55
2023-03-02T18:14:07.848Z,91.59
2023-03-02T18:16:52.720Z,91.47
2023-03-02T18:19:38.301Z,91.83
2023-03-02T18:22:23.454Z,92.33
2023-03-02T18:25:09.080Z,92.75
2023-03-02T18:27:54.349Z,92.43
2023-03-02T18:30:39.608Z,93.00
2023-03-02T18:33:25.006Z,93.27
2023-03-02T18:36:10.506Z,93.46
2023-03-02T18:38:56.032Z,93.90
2023-03-02T18:41:41.270Z,94.42
2023-03-02T18:44:28.140Z,94.72
2023-03-02T18:47:18.002Z,95.00
2023-03-02T18:50:03.700Z,96.32
2023-03-02T18:52:50.325Z,96.49
2023-03-02T18:55:37.156Z,97.02
2023-03-02T18:58:24.634Z,97.87
2023-03-02T19:01:09.991Z,98.47
2023-03-02T19:03:57.574Z,98.93
2023-03-02T19:06:43.333Z,99.70
2023-03-02T19:09:28.877Z,100.00
2023-03-02T19:12:14.629Z,100.00
2023-03-02T19:14:59.579Z,100.00
2023-03-02T19:17:45.907Z,100.00
2023-03-02T19:20:31.132Z,100.00
2023-03-02T19:23:16.963Z,100.00
2023-03-02T19:26:02.590Z,100.00
2023-03-02T19:28:47.528Z,100.00
2023-03-02T19:31:33.218Z,100.00
2023-03-02T19:34:18.213Z,100.00
2023-03-02T19:37:05.298Z,100.00
2023-03-02T19:39:50.410Z,100.00
2023-03-02T19:42:39.316Z,100.00
2023-03-02T19:45:29.078Z,100.00
2023-03-02T19:48:14.422Z,100.00
2023-03-02T19:50:59.482Z,100.00
2023-03-02T19:53:47.054Z,100.00
2023-03-02T19:56:35.015Z,100.00
2023-03-02T19:59:22.104Z,100.00
2023-03-02T20:02:07.217Z,100.00
2023-03-02T20:04:53.421Z,100.00
2023-03-02T20:07:41.489Z,100.00
2023-03-02T20:10:31.395Z,100.00
2023-03-02T20:13:16.863Z,100.00
2023-03-02T20:16:02.251Z,100.00
2023-03-02T20:18:47.414Z,100.00
2023-03-02T20:21:33.615Z,100.00
2023-03-02T20:24:18.714Z,100.00
2023-03-02T20:27:06.836Z,100.00
2023-03-02T20:29:52.171Z,100.00
2023-03-02T20:32:37.433Z,100.00
2023-03-02T20:35:24.323Z,100.00
2023-03-02T20:38:15.556Z,100.00
2023-03-02T20:41:01.280Z,100.00
2023-03-02T20:43:46.660Z,100.00
2023-03-02T20:46:40.211Z,99.71
2023-03-02T20:49:27.416Z,99.50
2023-03-02T20:52:12.440Z,100.00
2023-03-02T20:54:57.546Z,99.32
2023-03-02T20:57:42.982Z,99.48
2023-03-02T21:00:30.013Z,99.42
2023-03-02T21:03:15.476Z,99.54
2023-03-02T21:06:00.947Z,99.37
2023-03-02T21:08:47.290Z,99.40
2023-03-02T21:11:33.683Z,99.49
2023-03-02T21:14:19.089Z,98.92
2023-03-02T21:17:05.215Z,99.20
2023-03-02T21:19:50.296Z,98.80
2023-03-02T21:22:35.580Z,98.44
2023-03-02T21:25:20.663Z,99.08
2023-03-02T21:28:06.024Z,98.82
2023-03-02T21:30:51.340Z,99.04
2023-03-02T21:33:36.642Z,99.03
2023-03-02T21:36:24.087Z,98.90
2023-03-02T21:39:10.491Z,98.67
2023-03-02T21:41:55.939Z,98.96
2023-03-02T21:44:40.955Z,98.23
2023-03-02T21:47:26.863Z,98.39
2023-03-02T21:50:14.989Z,98.16
2023-03-02T21:53:00.250Z,98.58
2023-03-02T21:55:45.955Z,98.52
2023-03-02T21:58:31.171Z,98.35
2023-03-02T22:01:16.824Z,97.99
2023-03-02T22:04:02.268Z,98.47
2023-03-02T22:06:47.512Z,97.65
2023-03-02T22:09:32.860Z,97.88
2023-03-02T22:12:20.375Z,97.68
2023-03-02T22:15:14.147Z,97.74
2023-03-02T22:17:59.729Z,98.28
2023-03-02T22:20:48.094Z,98.34
2023-03-02T22:23:33.045Z,97.84
2023-03-02T22:26:18.002Z,97.66
2023-03-02T22:29:13.625Z,97.81
2023-03-02T22:32:13.186Z,97.72
2023-03-02T22:35:01.758Z,97.94
2023-03-02T22:37:46.733Z,97.33
2023-03-02T22:40:34.561Z,97.32
2023-03-02T22:43:29.427Z,97.37
2023-03-02T22:46:17.578Z,97.25
2023-03-02T22:49:17.152Z,97.17
2023-03-02T22:52:11.624Z,96.78
2023-03-02T22:54:56.976Z,97.16
2023-03-02T22:57:42.886Z,97.56
2023-03-02T23:00:39.511Z,97.43
2023-03-02T23:03:39.015Z,97.27
2023-03-02T23:06:27.597Z,97.10
2023-03-02T23:09:16.967Z,96.94
2023-03-02T23:12:13.619Z,96.73
2023-03-02T23:14:58.712Z,96.81
2023-03-02T23:17:46.339Z,96.76
2023-03-02T23:20:33.784Z,96.95
2023-03-02T23:23:19.890Z,97.49
2023-03-02T23:26:05.199Z,97.26
2023-03-02T23:28:50.701Z,97.13
2023-03-02T23:31:36.000Z,96.92
2023-03-02T23:34:21.432Z,97.07
2023-03-02T23:37:06.543Z,97.45
2023-03-02T23:39:52.428Z,97.17
2023-03-02T23:42:37.904Z,96.96
2023-03-02T23:45:23.134Z,97.20
2023-03-02T23:48:07.963Z,97.43
2023-03-02T23:50:53.326Z,96.82
2023-03-02T23:53:38.122Z,96.74
2023-03-02T23:56:23.302Z,96.04
2023-03-02T23:59:08.720Z,96.33
